Time;durP1;ratioP1;P1;durP2;ratioP2;P2;SDS_P1;SDS_P2;PMS_P1;PMS_P2;Temp;Humidity;BMP_temperature;BMP_pressure;BME280_temperature;BME280_humidity;BME280_pressure;Samples;Min_cycle;Max_cycle;Signal;HPM_P1;HPM_P2
2023/08/21 00:01:49;;;;;;;9.80;4.07;;;;;;;;;;5093616;28;20264;-71
2023/08/21 00:04:14;;;;;;;7.80;3.90;;;;;;;;;;5093723;28;20639;-73
2023/08/21 00:06:39;;;;;;;4.75;3.80;;;;;;;;;;5093685;28;20268;-75
2023/08/21 00:09:05;;;;;;;6.32;3.70;;;;;;;;;;5094117;28;20074;-76
2023/08/21 00:11:30;;;;;;;5.30;4.05;;;;;;;;;;5094658;28;20031;-74
2023/08/21 00:13:55;;;;;;;4.70;3.35;;;;;;;;;;5094146;28;20016;-77
2023/08/21 00:16:21;;;;;;;5.60;3.65;;;;;;;;;;5095600;28;20032;-77
2023/08/21 00:18:46;;;;;;;6.00;3.40;;;;;;;;;;5094875;28;20016;-77
2023/08/21 00:21:11;;;;;;;5.47;3.50;;;;;;;;;;5075332;28;20031;-76
2023/08/21 00:23:37;;;;;;;5.47;3.42;;;;;;;;;;5093695;28;20039;-74
2023/08/21 00:26:02;;;;;;;4.20;3.20;;;;;;;;;;5094251;28;20020;-78
2023/08/21 00:28:32;;;;;;;5.10;3.22;;;;;;;;;;5095382;28;20081;-77
2023/08/21 00:31:02;;;;;;;6.13;3.47;;;;;;;;;;5094007;28;20027;-78
2023/08/21 00:33:28;;;;;;;5.05;3.22;;;;;;;;;;5096119;28;20034;-75
2023/08/21 00:35:53;;;;;;;6.60;3.28;;;;;;;;;;5097721;28;20098;-77
2023/08/21 00:38:18;;;;;;;8.13;2.90;;;;;;;;;;5075181;28;20451;-77
2023/08/21 00:40:44;;;;;;;3.57;2.97;;;;;;;;;;5093414;28;20020;-76
2023/08/21 00:43:09;;;;;;;4.33;3.13;;;;;;;;;;5093378;28;20329;-78
2023/08/21 00:45:34;;;;;;;6.40;3.20;;;;;;;;;;5094561;28;20386;-78
2023/08/21 00:48:00;;;;;;;5.43;3.33;;;;;;;;;;5096903;28;20585;-78
2023/08/21 00:50:25;;;;;;;5.15;3.20;;;;;;;;;;5075204;28;20020;-77
2023/08/21 00:52:51;;;;;;;5.40;3.10;;;;;;;;;;5095715;28;20077;-78
2023/08/21 00:55:17;;;;;;;6.05;3.22;;;;;;;;;;5076364;28;20261;-76
2023/08/21 00:57:42;;;;;;;5.75;3.08;;;;;;;;;;5095066;28;20028;-76
2023/08/21 01:00:10;;;;;;;4.70;2.97;;;;;;;;;;5096368;28;20440;-77
2023/08/21 01:02:35;;;;;;;4.93;3.08;;;;;;;;;;5094121;28;20579;-78
2023/08/21 01:05:00;;;;;;;4.35;2.92;;;;;;;;;;5093017;28;20102;-74
2023/08/21 01:07:26;;;;;;;6.47;3.43;;;;;;;;;;5093364;28;20387;-77
2023/08/21 01:10:15;;;;;;;4.30;2.92;;;;;;;;;;5093434;28;20255;-76
2023/08/21 01:12:55;;;;;;;5.00;3.33;;;;;;;;;;5093160;28;20243;-77
2023/08/21 01:15:21;;;;;;;7.45;3.22;;;;;;;;;;5092921;28;20066;-77
2023/08/21 01:17:47;;;;;;;4.82;3.33;;;;;;;;;;5092678;28;20025;-77
2023/08/21 01:20:14;;;;;;;6.15;3.35;;;;;;;;;;5074623;28;20028;-75
2023/08/21 01:22:40;;;;;;;6.18;3.17;;;;;;;;;;5092596;28;20032;-76
2023/08/21 01:25:07;;;;;;;11.50;3.40;;;;;;;;;;5092499;28;20100;-76
2023/08/21 01:27:34;;;;;;;4.25;3.47;;;;;;;;;;5093215;28;20491;-77
2023/08/21 01:30:00;;;;;;;8.57;3.30;;;;;;;;;;5096038;28;20060;-77
2023/08/21 01:32:29;;;;;;;4.55;2.95;;;;;;;;;;5095057;28;20027;-77
2023/08/21 01:34:55;;;;;;;5.18;3.28;;;;;;;;;;5076130;28;20127;-75
2023/08/21 01:37:22;;;;;;;5.43;3.30;;;;;;;;;;5093135;28;20036;-77
2023/08/21 01:39:47;;;;;;;8.60;3.10;;;;;;;;;;5075280;28;20035;-77
2023/08/21 01:42:12;;;;;;;4.90;3.50;;;;;;;;;;5096098;28;20023;-78
2023/08/21 01:44:37;;;;;;;4.97;3.42;;;;;;;;;;5076357;28;20347;-78
2023/08/21 01:47:03;;;;;;;3.80;3.30;;;;;;;;;;5096916;28;20035;-78
2023/08/21 01:49:28;;;;;;;6.75;3.40;;;;;;;;;;5077953;28;20165;-77
2023/08/21 01:51:53;;;;;;;5.75;3.28;;;;;;;;;;5076283;28;20028;-77
2023/08/21 01:54:19;;;;;;;6.80;3.37;;;;;;;;;;5078459;28;20027;-77
2023/08/21 01:56:44;;;;;;;7.33;3.30;;;;;;;;;;5095631;28;20307;-77
2023/08/21 01:59:09;;;;;;;6.07;3.58;;;;;;;;;;5098048;28;20277;-76
2023/08/21 02:01:34;;;;;;;4.90;3.70;;;;;;;;;;5099089;28;20048;-78
2023/08/21 02:04:00;;;;;;;7.37;3.97;;;;;;;;;;5097781;28;20820;-78
2023/08/21 02:06:25;;;;;;;8.27;3.73;;;;;;;;;;5080702;28;20283;-78
2023/08/21 02:08:50;;;;;;;4.90;3.50;;;;;;;;;;5098188;28;20312;-78
2023/08/21 02:11:15;;;;;;;5.23;3.80;;;;;;;;;;5098691;28;20260;-77
2023/08/21 02:13:41;;;;;;;6.53;4.15;;;;;;;;;;5098682;28;20705;-78
2023/08/21 02:16:06;;;;;;;5.13;3.92;;;;;;;;;;5081067;28;20020;-78
2023/08/21 02:18:31;;;;;;;4.38;3.40;;;;;;;;;;5099174;28;20471;-78
2023/08/21 02:20:57;;;;;;;5.05;3.65;;;;;;;;;;5098740;28;20391;-77
2023/08/21 02:23:24;;;;;;;5.40;3.67;;;;;;;;;;5080464;28;20024;-78
2023/08/21 02:25:49;;;;;;;5.70;3.42;;;;;;;;;;5098526;28;20504;-78
2023/08/21 02:28:14;;;;;;;5.88;3.72;;;;;;;;;;5098031;28;20111;-79
2023/08/21 02:30:41;;;;;;;6.50;3.60;;;;;;;;;;5098408;28;20043;-78
2023/08/21 02:33:06;;;;;;;5.38;3.47;;;;;;;;;;5097789;28;20073;-77
2023/08/21 02:35:31;;;;;;;4.47;3.22;;;;;;;;;;5079328;28;20023;-77
2023/08/21 02:37:56;;;;;;;5.87;3.50;;;;;;;;;;5080080;28;20023;-77
2023/08/21 02:40:22;;;;;;;5.90;3.50;;;;;;;;;;5080101;28;20252;-77
2023/08/21 02:42:47;;;;;;;6.53;3.45;;;;;;;;;;5098930;28;20024;-77
2023/08/21 02:45:12;;;;;;;6.03;3.40;;;;;;;;;;5082692;28;20020;-78
2023/08/21 02:47:38;;;;;;;9.43;3.33;;;;;;;;;;5100574;28;20643;-77
2023/08/21 02:50:05;;;;;;;4.78;3.58;;;;;;;;;;5100295;28;20039;-77
2023/08/21 02:52:31;;;;;;;3.97;3.15;;;;;;;;;;5100049;28;20031;-78
2023/08/21 02:54:57;;;;;;;4.25;3.60;;;;;;;;;;5079858;28;20406;-77
2023/08/21 02:57:23;;;;;;;4.72;3.28;;;;;;;;;;5097757;28;20111;-77
2023/08/21 02:59:49;;;;;;;5.60;3.53;;;;;;;;;;5079196;28;20028;-78
2023/08/21 03:02:14;;;;;;;6.17;3.30;;;;;;;;;;5096631;28;20479;-77
2023/08/21 03:04:39;;;;;;;4.53;3.13;;;;;;;;;;5096247;28;20336;-77
2023/08/21 03:07:04;;;;;;;5.27;3.67;;;;;;;;;;5099620;28;20265;-78
2023/08/21 03:09:30;;;;;;;4.43;3.60;;;;;;;;;;5099322;28;20263;-76
2023/08/21 03:11:55;;;;;;;11.97;3.97;;;;;;;;;;5098647;28;20252;-78
2023/08/21 03:14:20;;;;;;;7.47;3.60;;;;;;;;;;5099593;28;20260;-78
2023/08/21 03:16:45;;;;;;;5.88;3.42;;;;;;;;;;5099837;28;20263;-78
2023/08/21 03:19:11;;;;;;;4.78;3.40;;;;;;;;;;5100403;28;20028;-78
2023/08/21 03:21:36;;;;;;;5.65;4.05;;;;;;;;;;5097173;28;20027;-77
2023/08/21 03:24:01;;;;;;;4.38;3.30;;;;;;;;;;5099443;28;20423;-77
2023/08/21 03:26:27;;;;;;;7.00;3.70;;;;;;;;;;5095289;28;20077;-77
2023/08/21 03:28:52;;;;;;;4.65;3.60;;;;;;;;;;5097683;28;20024;-78
2023/08/21 03:31:17;;;;;;;7.05;3.78;;;;;;;;;;5100029;28;20394;-78
2023/08/21 03:33:43;;;;;;;7.30;3.57;;;;;;;;;;5078053;28;20026;-76
2023/08/21 03:36:08;;;;;;;8.30;3.75;;;;;;;;;;5077853;28;20280;-76
2023/08/21 03:38:33;;;;;;;7.18;3.50;;;;;;;;;;5096912;28;20046;-77
2023/08/21 03:40:59;;;;;;;5.53;3.83;;;;;;;;;;5097981;28;20020;-78
2023/08/21 03:43:24;;;;;;;6.75;3.25;;;;;;;;;;5079695;28;20280;-77
2023/08/21 03:45:50;;;;;;;9.20;3.70;;;;;;;;;;5079717;28;20024;-78
2023/08/21 03:48:15;;;;;;;5.22;3.38;;;;;;;;;;5097751;28;20078;-77
2023/08/21 03:50:40;;;;;;;9.70;3.27;;;;;;;;;;5080399;28;20024;-78
2023/08/21 03:53:05;;;;;;;8.37;3.67;;;;;;;;;;5097859;28;20650;-77
2023/08/21 03:55:31;;;;;;;6.00;3.67;;;;;;;;;;5097265;28;20252;-77
2023/08/21 03:57:56;;;;;;;3.97;3.00;;;;;;;;;;5096195;28;20280;-76
2023/08/21 04:00:21;;;;;;;7.18;3.25;;;;;;;;;;5094361;28;20351;-77
2023/08/21 04:02:46;;;;;;;5.10;3.40;;;;;;;;;;5093940;28;20016;-77
2023/08/21 04:05:12;;;;;;;4.10;3.17;;;;;;;;;;5094095;28;20024;-77
2023/08/21 04:07:37;;;;;;;6.43;3.60;;;;;;;;;;5094176;28;20260;-78
2023/08/21 04:10:03;;;;;;;11.38;3.70;;;;;;;;;;5093923;28;20762;-77
2023/08/21 04:12:28;;;;;;;4.90;3.50;;;;;;;;;;5093926;28;20024;-75
2023/08/21 04:14:54;;;;;;;5.47;3.58;;;;;;;;;;5093952;28;20056;-77
2023/08/21 04:17:23;;;;;;;4.90;3.63;;;;;;;;;;5094384;28;20491;-77
2023/08/21 04:19:49;;;;;;;4.70;3.67;;;;;;;;;;5077998;28;20062;-78
2023/08/21 04:22:14;;;;;;;6.55;3.90;;;;;;;;;;5094687;28;20032;-77
2023/08/21 04:24:41;;;;;;;10.48;4.43;;;;;;;;;;5096637;28;20023;-77
2023/08/21 04:27:06;;;;;;;4.93;3.80;;;;;;;;;;5094461;28;20035;-76
2023/08/21 04:29:31;;;;;;;6.75;4.05;;;;;;;;;;5094914;28;20023;-77
2023/08/21 04:31:57;;;;;;;9.03;3.90;;;;;;;;;;5094627;28;20027;-77
2023/08/21 04:34:22;;;;;;;7.93;4.30;;;;;;;;;;5076521;28;20319;-78
2023/08/21 04:36:49;;;;;;;13.73;4.47;;;;;;;;;;5094683;28;20261;-77
2023/08/21 04:39:14;;;;;;;8.55;4.47;;;;;;;;;;5078528;28;20339;-79
2023/08/21 04:41:40;;;;;;;8.32;4.82;;;;;;;;;;5096582;28;20054;-78
2023/08/21 04:44:05;;;;;;;8.25;4.22;;;;;;;;;;5096021;28;20028;-77
2023/08/21 04:46:31;;;;;;;7.37;4.53;;;;;;;;;;5077464;28;20089;-77
2023/08/21 04:48:56;;;;;;;13.90;4.60;;;;;;;;;;5075927;28;20295;-78
2023/08/21 04:51:21;;;;;;;6.28;4.22;;;;;;;;;;5077719;28;20758;-77
2023/08/21 04:53:46;;;;;;;6.65;4.40;;;;;;;;;;5079656;28;20088;-79
2023/08/21 04:56:12;;;;;;;7.15;4.55;;;;;;;;;;5095521;28;20111;-77
2023/08/21 04:58:37;;;;;;;7.95;4.43;;;;;;;;;;5095026;28;20043;-79
2023/08/21 05:01:05;;;;;;;8.85;5.30;;;;;;;;;;5093968;28;20055;-78
2023/08/21 05:03:30;;;;;;;6.68;4.47;;;;;;;;;;5093871;28;20028;-77
2023/08/21 05:05:56;;;;;;;8.18;4.40;;;;;;;;;;5093396;28;20476;-79
2023/08/21 05:08:23;;;;;;;7.07;4.30;;;;;;;;;;5093682;28;20051;-77
2023/08/21 05:10:48;;;;;;;7.93;4.10;;;;;;;;;;5094413;28;20024;-78
2023/08/21 05:13:16;;;;;;;6.07;4.37;;;;;;;;;;5095112;28;20020;-76
2023/08/21 05:15:43;;;;;;;6.93;4.45;;;;;;;;;;5096343;28;20264;-78
2023/08/21 05:18:08;;;;;;;6.47;4.18;;;;;;;;;;5096456;28;20107;-80
2023/08/21 05:20:34;;;;;;;8.23;4.37;;;;;;;;;;5097190;28;20477;-81
2023/08/21 05:22:59;;;;;;;7.17;4.40;;;;;;;;;;5098124;28;20287;-80
2023/08/21 05:25:24;;;;;;;9.43;4.57;;;;;;;;;;5097610;28;20305;-83
2023/08/21 05:27:49;;;;;;;10.70;4.97;;;;;;;;;;5097315;28;20031;-77
2023/08/21 05:30:15;;;;;;;8.23;4.88;;;;;;;;;;5096073;28;20267;-80
2023/08/21 05:32:40;;;;;;;6.30;4.70;;;;;;;;;;5093849;28;20502;-76
2023/08/21 05:35:05;;;;;;;8.00;5.00;;;;;;;;;;5095966;28;20028;-75
2023/08/21 05:37:31;;;;;;;10.30;4.97;;;;;;;;;;5076332;28;20397;-75
2023/08/21 05:39:56;;;;;;;8.35;4.88;;;;;;;;;;5096377;28;20028;-76
2023/08/21 05:42:21;;;;;;;11.33;5.60;;;;;;;;;;5096346;28;20052;-77
2023/08/21 05:44:47;;;;;;;7.05;5.78;;;;;;;;;;5096151;28;20771;-76
2023/08/21 05:47:12;;;;;;;8.70;5.65;;;;;;;;;;5078027;28;20016;-76
2023/08/21 05:49:37;;;;;;;11.10;5.63;;;;;;;;;;5096199;28;20106;-76
2023/08/21 05:52:03;;;;;;;13.35;5.55;;;;;;;;;;5096318;28;20316;-76
2023/08/21 05:54:30;;;;;;;7.22;5.03;;;;;;;;;;5078012;28;20447;-76
2023/08/21 05:56:55;;;;;;;8.20;4.95;;;;;;;;;;5095932;28;20028;-76
2023/08/21 05:59:29;;;;;;;7.97;5.20;;;;;;;;;;5077733;28;20038;-76
2023/08/21 06:01:55;;;;;;;12.45;5.40;;;;;;;;;;5077797;28;20119;-76
2023/08/21 06:04:20;;;;;;;9.23;5.72;;;;;;;;;;5097511;28;20108;-79
2023/08/21 06:06:45;;;;;;;10.15;5.65;;;;;;;;;;5098217;28;20024;-78
2023/08/21 06:09:13;;;;;;;9.97;5.07;;;;;;;;;;5098644;28;20031;-82
2023/08/21 06:11:38;;;;;;;8.70;5.70;;;;;;;;;;5096476;28;20343;-77
2023/08/21 06:14:04;;;;;;;8.32;5.65;;;;;;;;;;5097596;28;20051;-77
2023/08/21 06:16:29;;;;;;;7.80;5.53;;;;;;;;;;5096640;28;20114;-77
2023/08/21 06:18:54;;;;;;;9.15;5.78;;;;;;;;;;5096329;28;20020;-78
2023/08/21 06:21:20;;;;;;;8.50;5.30;;;;;;;;;;5097923;28;20027;-78
2023/08/21 06:23:45;;;;;;;7.50;5.37;;;;;;;;;;5098258;28;20312;-78
2023/08/21 06:26:10;;;;;;;7.87;5.73;;;;;;;;;;5080736;28;20256;-77
2023/08/21 06:28:35;;;;;;;10.57;5.33;;;;;;;;;;5096843;28;20257;-77
2023/08/21 06:31:07;;;;;;;13.03;6.00;;;;;;;;;;5097659;28;20287;-78
2023/08/21 06:33:32;;;;;;;7.00;5.60;;;;;;;;;;5099461;28;20253;-78
2023/08/21 06:35:57;;;;;;;9.02;5.53;;;;;;;;;;5098403;28;20030;-76
2023/08/21 06:38:23;;;;;;;8.20;5.53;;;;;;;;;;5097564;28;20499;-79
2023/08/21 06:40:48;;;;;;;8.30;4.67;;;;;;;;;;5097433;28;20253;-78
2023/08/21 06:43:13;;;;;;;6.70;4.97;;;;;;;;;;5097549;28;20365;-78
2023/08/21 06:45:38;;;;;;;10.02;4.97;;;;;;;;;;5096967;28;20302;-77
2023/08/21 06:48:04;;;;;;;8.23;4.80;;;;;;;;;;5097565;28;20030;-77
2023/08/21 06:50:30;;;;;;;11.20;4.95;;;;;;;;;;5096788;28;20257;-77
2023/08/21 06:52:55;;;;;;;8.73;4.75;;;;;;;;;;5096240;28;20016;-78
2023/08/21 06:55:21;;;;;;;7.33;4.53;;;;;;;;;;5095802;28;20038;-76
2023/08/21 06:57:46;;;;;;;11.48;5.05;;;;;;;;;;5095035;28;20264;-77
2023/08/21 07:00:12;;;;;;;7.07;5.00;;;;;;;;;;5095218;28;20059;-77
2023/08/21 07:02:37;;;;;;;6.70;5.43;;;;;;;;;;5096582;28;20488;-77
2023/08/21 07:05:02;;;;;;;6.88;4.82;;;;;;;;;;5097791;28;20020;-78
2023/08/21 07:07:28;;;;;;;7.55;5.15;;;;;;;;;;5079713;28;20051;-78
2023/08/21 07:09:53;;;;;;;7.45;4.85;;;;;;;;;;5098265;28;20023;-77
2023/08/21 07:12:18;;;;;;;7.80;5.32;;;;;;;;;;5097530;28;20028;-78
2023/08/21 07:14:44;;;;;;;6.97;4.60;;;;;;;;;;5097943;28;20024;-78
2023/08/21 07:17:09;;;;;;;6.65;4.82;;;;;;;;;;5097183;28;20508;-77
2023/08/21 07:19:34;;;;;;;9.03;5.30;;;;;;;;;;5098133;28;20020;-77
2023/08/21 07:21:59;;;;;;;7.70;4.65;;;;;;;;;;5077469;28;20611;-77
2023/08/21 07:24:25;;;;;;;9.67;4.90;;;;;;;;;;5094549;28;20024;-77
2023/08/21 07:26:50;;;;;;;7.78;4.55;;;;;;;;;;5094198;28;20300;-77
2023/08/21 07:29:15;;;;;;;9.27;4.93;;;;;;;;;;5076268;28;20023;-77
2023/08/21 07:31:40;;;;;;;7.50;4.45;;;;;;;;;;5094692;28;20020;-77
2023/08/21 07:34:06;;;;;;;6.17;4.77;;;;;;;;;;5076767;28;20051;-77
2023/08/21 07:36:32;;;;;;;8.32;4.80;;;;;;;;;;5075918;28;20261;-77
2023/08/21 07:38:57;;;;;;;8.98;4.65;;;;;;;;;;5094300;28;20083;-77
2023/08/21 07:41:22;;;;;;;6.80;4.90;;;;;;;;;;5094578;28;20486;-77
2023/08/21 07:43:48;;;;;;;7.33;5.23;;;;;;;;;;5094203;28;20284;-77
2023/08/21 07:46:15;;;;;;;9.03;4.63;;;;;;;;;;5095409;28;20249;-77
2023/08/21 07:48:42;;;;;;;7.57;4.78;;;;;;;;;;5097324;28;20261;-78
2023/08/21 07:51:07;;;;;;;5.88;4.47;;;;;;;;;;5097761;28;20028;-78
2023/08/21 07:53:34;;;;;;;7.22;4.68;;;;;;;;;;5094700;28;20107;-77
2023/08/21 07:56:00;;;;;;;7.30;4.70;;;;;;;;;;5092527;28;20028;-76
2023/08/21 07:58:25;;;;;;;11.30;5.50;;;;;;;;;;5076351;28;20344;-77
2023/08/21 08:00:50;;;;;;;6.27;5.13;;;;;;;;;;5095566;28;20020;-78
2023/08/21 08:03:15;;;;;;;8.98;5.05;;;;;;;;;;5093809;28;20685;-77
2023/08/21 08:05:42;;;;;;;8.97;5.10;;;;;;;;;;5093449;28;20031;-77
2023/08/21 08:08:07;;;;;;;7.47;5.05;;;;;;;;;;5093976;28;20260;-77
2023/08/21 08:10:32;;;;;;;6.28;5.00;;;;;;;;;;5094664;28;20032;-78
2023/08/21 08:12:58;;;;;;;6.63;5.07;;;;;;;;;;5095117;28;20391;-77
2023/08/21 08:15:23;;;;;;;10.13;5.80;;;;;;;;;;5095483;28;20028;-78
2023/08/21 08:17:53;;;;;;;8.00;5.88;;;;;;;;;;5076521;28;20770;-76
2023/08/21 08:20:18;;;;;;;8.52;5.80;;;;;;;;;;5093529;28;20106;-77
2023/08/21 08:22:44;;;;;;;11.88;5.57;;;;;;;;;;5093495;28;20070;-77
2023/08/21 08:25:10;;;;;;;6.13;5.28;;;;;;;;;;5075047;28;20024;-77
2023/08/21 08:27:35;;;;;;;8.57;6.00;;;;;;;;;;5093325;28;20023;-77
2023/08/21 08:30:00;;;;;;;7.57;5.45;;;;;;;;;;5093337;28;20050;-77
2023/08/21 08:32:26;;;;;;;7.60;5.63;;;;;;;;;;5075014;28;20387;-77
2023/08/21 08:34:52;;;;;;;9.60;5.85;;;;;;;;;;5093108;28;20292;-77
2023/08/21 08:37:18;;;;;;;8.40;5.63;;;;;;;;;;5075948;28;20031;-77
2023/08/21 08:39:45;;;;;;;9.90;5.90;;;;;;;;;;5093239;28;20127;-77
2023/08/21 08:42:10;;;;;;;8.23;5.93;;;;;;;;;;5093130;28;20035;-77
2023/08/21 08:44:38;;;;;;;11.20;6.80;;;;;;;;;;5092959;28;20020;-77
2023/08/21 08:47:03;;;;;;;10.50;6.13;;;;;;;;;;5092921;28;20060;-77
2023/08/21 08:49:30;;;;;;;8.38;5.85;;;;;;;;;;5092708;28;20052;-77
2023/08/21 08:51:56;;;;;;;9.32;5.93;;;;;;;;;;5076368;28;20024;-78
2023/08/21 08:54:22;;;;;;;9.57;6.15;;;;;;;;;;5094377;28;20022;-77
2023/08/21 08:56:47;;;;;;;9.95;5.50;;;;;;;;;;5092909;28;20095;-78
2023/08/21 08:59:14;;;;;;;11.05;5.47;;;;;;;;;;5094914;28;20108;-77
2023/08/21 09:01:40;;;;;;;10.02;6.03;;;;;;;;;;5095335;28;20039;-78
2023/08/21 09:04:06;;;;;;;8.63;5.70;;;;;;;;;;5095348;28;20410;-77
2023/08/21 09:06:32;;;;;;;11.07;6.30;;;;;;;;;;5095166;28;20028;-77
2023/08/21 09:08:58;;;;;;;8.43;6.25;;;;;;;;;;5076937;28;20714;-76
2023/08/21 09:11:23;;;;;;;8.52;5.97;;;;;;;;;;5079772;28;20023;-77
2023/08/21 09:13:50;;;;;;;8.50;6.28;;;;;;;;;;5099239;28;20020;-78
2023/08/21 09:16:17;;;;;;;10.85;6.50;;;;;;;;;;5079260;28;20549;-76
2023/08/21 09:19:03;;;;;;;9.38;6.20;;;;;;;;;;5097111;28;20096;-76
2023/08/21 09:21:28;;;;;;;11.38;5.97;;;;;;;;;;5096893;28;20036;-78
2023/08/21 09:23:59;;;;;;;8.80;6.00;;;;;;;;;;5098603;28;20020;-77
2023/08/21 09:26:25;;;;;;;8.90;5.88;;;;;;;;;;5098501;28;20089;-77
2023/08/21 09:28:52;;;;;;;9.70;5.53;;;;;;;;;;5098252;28;20475;-77
2023/08/21 09:31:29;;;;;;;7.70;5.55;;;;;;;;;;5098493;28;20024;-77
2023/08/21 09:34:00;;;;;;;8.13;6.00;;;;;;;;;;5080968;28;20149;-77
2023/08/21 09:36:26;;;;;;;12.30;5.57;;;;;;;;;;5098334;28;20043;-79
2023/08/21 09:38:54;;;;;;;6.82;5.10;;;;;;;;;;5079635;28;20027;-75
2023/08/21 09:41:21;;;;;;;8.25;5.28;;;;;;;;;;5097743;28;20041;-76
2023/08/21 09:43:46;;;;;;;8.90;5.30;;;;;;;;;;5097418;28;20020;-74
2023/08/21 09:46:16;;;;;;;7.15;5.10;;;;;;;;;;5094685;28;20077;-75
2023/08/21 09:48:41;;;;;;;7.30;4.82;;;;;;;;;;5096446;28;20028;-74
2023/08/21 09:51:07;;;;;;;6.85;5.20;;;;;;;;;;5096105;28;20028;-72
2023/08/21 09:53:32;;;;;;;6.22;5.00;;;;;;;;;;5096690;28;20387;-74
2023/08/21 09:56:03;;;;;;;7.63;5.13;;;;;;;;;;5095929;28;20027;-75
2023/08/21 09:58:28;;;;;;;19.05;14.85;;;;;;;;;;5096234;28;20024;-75
2023/08/21 10:00:58;;;;;;;6.13;3.95;;;;;;;;;;5095896;28;20039;-74
2023/08/21 10:03:24;;;;;;;8.15;4.50;;;;;;;;;;5097199;28;20027;-79
2023/08/21 10:05:49;;;;;;;8.30;4.72;;;;;;;;;;5077467;28;20020;-75
2023/08/21 10:08:18;;;;;;;6.22;4.35;;;;;;;;;;5095785;28;20074;-74
2023/08/21 10:10:43;;;;;;;5.82;4.03;;;;;;;;;;5095720;28;20052;-73
2023/08/21 10:13:10;;;;;;;6.80;4.22;;;;;;;;;;5077964;28;20031;-76
2023/08/21 10:15:37;;;;;;;6.10;4.07;;;;;;;;;;5096482;28;20020;-72
2023/08/21 10:18:19;;;;;;;4.95;4.00;;;;;;;;;;5078051;28;20064;-75
2023/08/21 10:20:45;;;;;;;9.05;4.20;;;;;;;;;;5077408;28;20544;-75
2023/08/21 10:23:23;;;;;;;5.55;3.90;;;;;;;;;;5095653;28;20028;-75
2023/08/21 10:25:54;;;;;;;6.68;3.78;;;;;;;;;;5095417;28;20020;-77
2023/08/21 10:28:20;;;;;;;5.68;3.75;;;;;;;;;;5097294;28;20022;-77
2023/08/21 10:30:47;;;;;;;4.32;3.63;;;;;;;;;;5098080;28;20028;-77
2023/08/21 10:33:13;;;;;;;7.20;4.28;;;;;;;;;;5080706;28;20031;-77
2023/08/21 10:35:38;;;;;;;5.80;3.73;;;;;;;;;;5096879;28;20031;-77
2023/08/21 10:38:18;;;;;;;6.77;3.67;;;;;;;;;;5098568;28;20256;-78
2023/08/21 10:41:06;;;;;;;6.13;3.80;;;;;;;;;;5079846;28;20261;-79
2023/08/21 10:43:45;;;;;;;5.38;3.40;;;;;;;;;;5080904;28;20089;-79
2023/08/21 10:46:12;;;;;;;4.55;3.30;;;;;;;;;;5097748;28;20038;-74
2023/08/21 10:48:38;;;;;;;6.15;3.45;;;;;;;;;;5097217;28;20028;-75
2023/08/21 10:51:06;;;;;;;33.90;25.08;;;;;;;;;;5097606;28;20038;-75
2023/08/21 10:53:32;;;;;;;5.22;3.90;;;;;;;;;;5076705;28;20016;-74
2023/08/21 10:56:01;;;;;;;5.75;3.50;;;;;;;;;;5095197;28;20020;-76
2023/08/21 10:58:26;;;;;;;5.50;3.55;;;;;;;;;;5094953;28;20020;-77
2023/08/21 11:01:01;;;;;;;7.47;3.70;;;;;;;;;;5095945;28;20110;-73
2023/08/21 11:03:26;;;;;;;5.57;3.80;;;;;;;;;;5094660;28;20032;-73
2023/08/21 11:06:05;;;;;;;5.32;3.67;;;;;;;;;;5094633;28;20028;-74
2023/08/21 11:08:32;;;;;;;6.25;3.53;;;;;;;;;;5094840;28;20028;-73
2023/08/21 11:10:58;;;;;;;5.22;3.50;;;;;;;;;;5076380;28;20052;-72
2023/08/21 11:13:24;;;;;;;5.07;3.45;;;;;;;;;;5094486;28;20020;-74
2023/08/21 11:15:57;;;;;;;7.85;3.60;;;;;;;;;;5094507;28;20026;-73
2023/08/21 11:18:33;;;;;;;5.97;3.78;;;;;;;;;;5076523;28;20044;-72
2023/08/21 11:21:09;;;;;;;8.07;3.88;;;;;;;;;;5094751;28;20047;-72
2023/08/21 11:23:36;;;;;;;5.68;3.63;;;;;;;;;;5094306;28;20028;-72
2023/08/21 11:26:03;;;;;;;5.63;3.63;;;;;;;;;;5094248;28;20216;-72
2023/08/21 11:28:29;;;;;;;8.40;3.58;;;;;;;;;;5076081;28;20020;-72
2023/08/21 11:30:56;;;;;;;6.15;3.50;;;;;;;;;;5093553;28;20024;-72
2023/08/21 11:33:21;;;;;;;7.00;3.45;;;;;;;;;;5094253;28;20078;-72
2023/08/21 11:35:47;;;;;;;10.20;3.40;;;;;;;;;;5093926;28;20028;-74
2023/08/21 11:38:17;;;;;;;8.13;3.20;;;;;;;;;;5094074;28;20054;-74
2023/08/21 11:40:54;;;;;;;5.05;3.50;;;;;;;;;;5094106;28;20027;-74
2023/08/21 11:43:19;;;;;;;4.80;3.20;;;;;;;;;;5094001;28;20040;-73
2023/08/21 11:45:48;;;;;;;5.30;3.17;;;;;;;;;;5094048;28;20064;-74
2023/08/21 11:48:13;;;;;;;4.50;3.38;;;;;;;;;;5093924;28;20506;-74
2023/08/21 11:50:39;;;;;;;8.90;3.80;;;;;;;;;;5093809;28;20078;-74
2023/08/21 11:53:05;;;;;;;5.05;3.50;;;;;;;;;;5094051;28;20024;-74
2023/08/21 11:55:31;;;;;;;8.77;3.58;;;;;;;;;;5093647;28;20032;-74
2023/08/21 11:57:57;;;;;;;5.07;3.40;;;;;;;;;;5093821;28;20463;-74
2023/08/21 12:00:27;;;;;;;5.47;3.67;;;;;;;;;;5075645;28;20030;-74
2023/08/21 12:02:58;;;;;;;5.68;3.40;;;;;;;;;;5075540;28;20414;-74
2023/08/21 12:05:23;;;;;;;4.82;3.33;;;;;;;;;;5093747;28;20028;-73
2023/08/21 12:07:49;;;;;;;7.45;3.60;;;;;;;;;;5093734;28;20497;-73
2023/08/21 12:10:14;;;;;;;6.20;3.85;;;;;;;;;;5093785;28;20032;-73
2023/08/21 12:12:39;;;;;;;5.38;3.47;;;;;;;;;;5093637;28;20024;-73
2023/08/21 12:15:05;;;;;;;5.73;4.03;;;;;;;;;;5093459;28;20082;-73
2023/08/21 12:17:31;;;;;;;7.60;3.80;;;;;;;;;;5093496;28;20260;-73
2023/08/21 12:19:56;;;;;;;4.78;3.63;;;;;;;;;;5093682;28;20066;-73
2023/08/21 12:22:21;;;;;;;8.60;3.85;;;;;;;;;;5093306;28;20467;-73
2023/08/21 12:24:46;;;;;;;4.60;3.65;;;;;;;;;;5093012;28;20032;-73
2023/08/21 12:27:12;;;;;;;9.20;3.95;;;;;;;;;;5093007;28;20394;-74
2023/08/21 12:29:37;;;;;;;8.23;3.77;;;;;;;;;;5093477;28;20061;-72
2023/08/21 12:32:03;;;;;;;5.22;3.67;;;;;;;;;;5075004;28;20778;-73
2023/08/21 12:34:28;;;;;;;7.70;3.75;;;;;;;;;;5093141;28;20016;-74
2023/08/21 12:36:53;;;;;;;8.23;3.80;;;;;;;;;;5093145;28;20028;-73
2023/08/21 12:39:19;;;;;;;6.35;3.95;;;;;;;;;;5093437;28;20043;-73
2023/08/21 12:41:44;;;;;;;8.10;3.22;;;;;;;;;;5093031;28;20024;-73
2023/08/21 12:44:09;;;;;;;7.83;3.83;;;;;;;;;;5091963;28;20097;-73
2023/08/21 12:46:36;;;;;;;7.72;3.58;;;;;;;;;;5092798;28;20256;-73
2023/08/21 12:49:01;;;;;;;6.28;3.80;;;;;;;;;;5074751;28;20034;-72
2023/08/21 12:51:27;;;;;;;5.90;3.78;;;;;;;;;;5093611;28;20028;-72
2023/08/21 12:53:53;;;;;;;6.10;3.55;;;;;;;;;;5092859;28;20505;-72
2023/08/21 12:56:18;;;;;;;4.73;3.87;;;;;;;;;;5092719;28;20051;-73
2023/08/21 12:58:43;;;;;;;4.38;3.50;;;;;;;;;;5074504;28;20739;-73
2023/08/21 13:01:09;;;;;;;5.15;3.40;;;;;;;;;;5092897;28;20055;-73
2023/08/21 13:03:34;;;;;;;8.70;3.90;;;;;;;;;;5092619;28;20497;-73
2023/08/21 13:05:59;;;;;;;6.75;3.90;;;;;;;;;;5092732;28;20047;-72
2023/08/21 13:08:25;;;;;;;8.47;3.53;;;;;;;;;;5074661;28;20055;-71
2023/08/21 13:10:50;;;;;;;6.55;3.70;;;;;;;;;;5092611;28;20260;-73
2023/08/21 13:13:15;;;;;;;10.27;3.97;;;;;;;;;;5092915;28;20024;-72
2023/08/21 13:15:44;;;;;;;5.43;3.80;;;;;;;;;;5092720;28;20264;-72
2023/08/21 13:18:09;;;;;;;5.78;3.67;;;;;;;;;;5092639;28;20020;-72
2023/08/21 13:20:34;;;;;;;5.10;3.67;;;;;;;;;;5074361;28;20017;-72
2023/08/21 13:23:00;;;;;;;6.35;3.47;;;;;;;;;;5074686;28;20026;-72
2023/08/21 13:25:25;;;;;;;4.80;3.40;;;;;;;;;;5092363;28;20016;-73
2023/08/21 13:27:51;;;;;;;4.40;3.20;;;;;;;;;;5092438;28;20249;-72
2023/08/21 13:30:17;;;;;;;6.22;3.70;;;;;;;;;;5092738;28;20024;-74
2023/08/21 13:32:43;;;;;;;7.47;4.07;;;;;;;;;;5092974;28;20406;-73
2023/08/21 13:35:09;;;;;;;6.03;3.15;;;;;;;;;;5092441;28;20032;-73
2023/08/21 13:37:35;;;;;;;6.47;3.53;;;;;;;;;;5074302;28;20023;-73
2023/08/21 13:40:08;;;;;;;4.95;3.22;;;;;;;;;;5074463;28;20020;-73
2023/08/21 13:42:37;;;;;;;7.03;3.65;;;;;;;;;;5092416;28;20024;-74
2023/08/21 13:45:03;;;;;;;6.20;3.42;;;;;;;;;;5092074;28;20043;-74
2023/08/21 13:47:28;;;;;;;4.78;3.40;;;;;;;;;;5092518;28;20026;-74
2023/08/21 13:49:53;;;;;;;8.57;3.38;;;;;;;;;;5092262;28;20103;-74
2023/08/21 13:52:19;;;;;;;5.85;3.60;;;;;;;;;;5092293;28;20479;-74
2023/08/21 13:54:44;;;;;;;4.07;3.38;;;;;;;;;;5094384;28;20467;-72
2023/08/21 13:57:09;;;;;;;5.05;3.33;;;;;;;;;;5096562;28;20048;-72
2023/08/21 13:59:34;;;;;;;8.30;4.67;;;;;;;;;;5096440;28;20509;-73
2023/08/21 14:02:00;;;;;;;6.97;4.20;;;;;;;;;;5077883;28;20260;-75
2023/08/21 14:04:25;;;;;;;6.00;3.07;;;;;;;;;;5095879;28;20280;-73
2023/08/21 14:06:50;;;;;;;5.13;3.70;;;;;;;;;;5096153;28;20270;-74
2023/08/21 14:09:15;;;;;;;8.50;3.70;;;;;;;;;;5096470;28;20782;-75
2023/08/21 14:11:43;;;;;;;5.77;3.67;;;;;;;;;;5096625;28;20257;-74
2023/08/21 14:14:08;;;;;;;9.27;4.00;;;;;;;;;;5096102;28;20253;-73
2023/08/21 14:16:33;;;;;;;5.78;3.67;;;;;;;;;;5096725;28;20027;-74
2023/08/21 14:18:59;;;;;;;4.73;3.27;;;;;;;;;;5096416;28;20020;-73
2023/08/21 14:21:24;;;;;;;6.60;3.70;;;;;;;;;;5094951;28;20261;-74
2023/08/21 14:23:49;;;;;;;5.47;3.47;;;;;;;;;;5075377;28;20815;-75
2023/08/21 14:26:14;;;;;;;7.07;3.47;;;;;;;;;;5095558;28;20108;-72
2023/08/21 14:28:40;;;;;;;6.10;3.20;;;;;;;;;;5077375;28;20264;-74
2023/08/21 14:31:05;;;;;;;5.55;3.60;;;;;;;;;;5095264;28;20267;-74
2023/08/21 14:33:30;;;;;;;5.97;3.37;;;;;;;;;;5095169;28;20024;-74
2023/08/21 14:35:56;;;;;;;3.93;3.50;;;;;;;;;;5076880;28;20028;-74